createdAt,value
2023-11-22T00:02:21.316Z,7.30
2023-11-22T00:04:48.779Z,6.07
2023-11-22T00:07:16.276Z,6.22
2023-11-22T00:09:44.250Z,7.90
2023-11-22T00:12:11.886Z,5.95
2023-11-22T00:14:40.812Z,4.35
2023-11-22T00:17:08.410Z,8.70
2023-11-22T00:19:35.884Z,6.65
2023-11-22T00:22:06.583Z,6.60
2023-11-22T00:24:34.455Z,5.60
2023-11-22T00:27:01.937Z,6.15
2023-11-22T00:29:29.496Z,6.35
2023-11-22T00:31:58.381Z,6.68
2023-11-22T00:34:25.873Z,6.82
2023-11-22T00:36:53.425Z,6.05
2023-11-22T00:39:20.958Z,4.68
2023-11-22T00:41:48.675Z,5.60
2023-11-22T00:44:16.674Z,6.35
2023-11-22T00:46:46.743Z,5.38
2023-11-22T00:49:15.645Z,6.80
2023-11-22T00:51:43.161Z,7.63
2023-11-22T00:54:10.656Z,7.25
2023-11-22T00:56:38.146Z,6.82
2023-11-22T00:59:05.682Z,7.85
2023-11-22T01:01:33.653Z,5.90
2023-11-22T01:04:01.357Z,3.83
2023-11-22T01:06:30.223Z,4.22
2023-11-22T01:08:57.683Z,3.72
2023-11-22T01:11:25.260Z,5.32
2023-11-22T01:13:52.854Z,4.13
2023-11-22T01:16:20.372Z,5.50
2023-11-22T01:18:48.180Z,6.60
2023-11-22T01:21:15.676Z,4.93
2023-11-22T01:23:46.224Z,4.55
2023-11-22T01:26:13.725Z,4.25
2023-11-22T01:28:45.263Z,5.70
2023-11-22T01:31:13.433Z,7.07
2023-11-22T01:33:41.468Z,5.30
2023-11-22T01:36:09.438Z,6.07
2023-11-22T01:38:37.014Z,5.55
2023-11-22T01:41:06.119Z,5.50
2023-11-22T01:43:33.649Z,4.57
2023-11-22T01:46:01.809Z,4.22
2023-11-22T01:48:29.548Z,6.68
2023-11-22T01:50:57.264Z,5.15
2023-11-22T01:53:24.998Z,7.03
2023-11-22T01:55:52.681Z,6.03
2023-11-22T01:58:21.968Z,5.28
2023-11-22T02:00:51.390Z,5.05
2023-11-22T02:03:19.864Z,4.95
2023-11-22T02:05:47.785Z,6.78
2023-11-22T02:08:15.386Z,6.97
2023-11-22T02:10:43.059Z,4.57
2023-11-22T02:13:11.264Z,5.90
2023-11-22T02:15:40.138Z,6.55
2023-11-22T02:18:13.060Z,7.28
2023-11-22T02:20:42.336Z,6.45
2023-11-22T02:23:12.451Z,5.57
2023-11-22T02:25:40.292Z,8.15
2023-11-22T02:28:09.565Z,6.00
2023-11-22T02:30:37.725Z,3.55
2023-11-22T02:33:06.035Z,6.20
2023-11-22T02:35:34.045Z,6.35
2023-11-22T02:38:01.864Z,6.63
2023-11-22T02:40:30.691Z,5.20
2023-11-22T02:42:58.746Z,4.00
2023-11-22T02:45:27.701Z,4.55
2023-11-22T02:47:55.242Z,6.93
2023-11-22T02:50:22.889Z,6.25
2023-11-22T02:52:50.382Z,5.03
2023-11-22T02:55:18.085Z,6.22
2023-11-22T02:57:47.283Z,6.03
2023-11-22T03:00:15.836Z,4.93
2023-11-22T03:02:43.514Z,6.28
2023-11-22T03:05:11.904Z,7.80
2023-11-22T03:07:39.436Z,4.78
2023-11-22T03:10:08.746Z,5.55
2023-11-22T03:12:36.358Z,4.55
2023-11-22T03:15:05.504Z,4.70
2023-11-22T03:17:34.232Z,5.03
2023-11-22T03:20:02.746Z,5.00
2023-11-22T03:22:31.439Z,5.93
2023-11-22T03:24:59.866Z,5.25
2023-11-22T03:27:27.540Z,5.05
2023-11-22T03:29:55.096Z,5.35
2023-11-22T03:32:26.528Z,7.30
2023-11-22T03:34:54.045Z,4.65
2023-11-22T03:37:21.616Z,7.18
2023-11-22T03:39:50.261Z,7.00
2023-11-22T03:42:18.375Z,4.57
2023-11-22T03:44:45.898Z,5.30
2023-11-22T03:47:14.546Z,4.05
2023-11-22T03:49:44.013Z,5.80
2023-11-22T03:52:12.531Z,5.25
2023-11-22T03:54:40.525Z,4.30
2023-11-22T03:57:08.125Z,3.70
2023-11-22T03:59:36.452Z,5.90
2023-11-22T04:02:04.003Z,5.38
2023-11-22T04:04:32.003Z,5.90
2023-11-22T04:07:00.851Z,5.82
2023-11-22T04:09:28.331Z,3.03
2023-11-22T04:11:55.833Z,5.05
2023-11-22T04:14:23.414Z,7.38
2023-11-22T04:16:51.353Z,4.88
2023-11-22T04:19:19.317Z,6.13
2023-11-22T04:21:47.174Z,5.07
2023-11-22T04:24:15.991Z,5.60
2023-11-22T04:26:43.582Z,4.22
2023-11-22T04:29:11.150Z,7.22
2023-11-22T04:31:38.676Z,5.28
2023-11-22T04:34:06.243Z,5.03
2023-11-22T04:36:33.740Z,4.93
2023-11-22T04:39:01.438Z,5.45
2023-11-22T04:41:30.376Z,6.15
2023-11-22T04:43:58.291Z,4.83
2023-11-22T04:46:25.810Z,4.60
2023-11-22T04:48:53.547Z,4.78
2023-11-22T04:51:21.069Z,6.47
2023-11-22T04:53:48.533Z,4.80
2023-11-22T04:56:16.153Z,5.70
2023-11-22T04:58:44.959Z,8.00
2023-11-22T05:01:12.458Z,6.60
2023-11-22T05:03:40.029Z,6.82
2023-11-22T05:06:08.616Z,6.50
2023-11-22T05:08:36.620Z,5.30
2023-11-22T05:11:04.903Z,5.20
2023-11-22T05:13:32.407Z,7.13
2023-11-22T05:16:02.045Z,7.32
2023-11-22T05:18:29.663Z,7.43
2023-11-22T05:20:57.168Z,8.93
2023-11-22T05:23:24.681Z,7.18
2023-11-22T05:25:53.114Z,7.80
2023-11-22T05:28:20.846Z,6.03
2023-11-22T05:30:48.328Z,14.05
2023-11-22T05:33:17.167Z,6.22
2023-11-22T05:35:44.838Z,2.60
2023-11-22T05:38:13.162Z,7.60
2023-11-22T05:40:40.697Z,5.55
2023-11-22T05:43:12.689Z,5.90
2023-11-22T05:45:40.825Z,6.15
2023-11-22T05:48:08.417Z,6.03
2023-11-22T05:50:37.430Z,4.47
2023-11-22T05:53:05.075Z,5.85
2023-11-22T05:55:33.209Z,8.20
2023-11-22T05:58:00.705Z,9.30
2023-11-22T06:00:28.386Z,5.93
2023-11-22T06:02:56.607Z,7.72
2023-11-22T06:05:24.284Z,7.43
2023-11-22T06:07:53.487Z,9.23
2023-11-22T06:10:21.021Z,6.38
2023-11-22T06:12:48.512Z,7.03
2023-11-22T06:15:15.999Z,6.68
2023-11-22T06:17:43.543Z,6.30
2023-11-22T06:20:12.375Z,6.65
2023-11-22T06:22:42.183Z,9.30
2023-11-22T06:27:38.441Z,8.02
2023-11-22T06:30:07.234Z,7.53
2023-11-22T06:32:35.162Z,7.07
2023-11-22T06:35:02.820Z,7.35
2023-11-22T06:37:30.336Z,7.97
2023-11-22T06:39:58.814Z,8.35
2023-11-22T06:42:26.351Z,8.95
2023-11-22T06:44:59.081Z,8.07
2023-11-22T06:47:26.650Z,7.00
2023-11-22T06:49:54.284Z,7.25
2023-11-22T06:52:21.890Z,7.25
2023-11-22T06:54:49.440Z,7.22
2023-11-22T06:57:16.925Z,6.97
2023-11-22T06:59:44.886Z,8.13
2023-11-22T07:02:15.446Z,10.15
2023-11-22T07:04:43.390Z,8.45
2023-11-22T07:07:12.130Z,8.98
2023-11-22T07:09:43.771Z,9.32
2023-11-22T07:12:11.351Z,7.57
2023-11-22T07:14:40.573Z,7.70
2023-11-22T07:17:08.501Z,12.40
2023-11-22T07:19:39.461Z,8.15
2023-11-22T07:22:17.056Z,7.30
2023-11-22T07:24:45.903Z,8.23
2023-11-22T07:27:13.595Z,7.13
2023-11-22T07:29:42.004Z,6.90
2023-11-22T07:32:11.177Z,8.93
2023-11-22T07:34:41.866Z,10.80
2023-11-22T07:37:09.696Z,8.70
2023-11-22T07:39:37.606Z,11.25
2023-11-22T07:42:08.859Z,7.88
2023-11-22T07:44:37.219Z,10.18
2023-11-22T07:47:08.896Z,7.03
2023-11-22T07:49:38.621Z,7.43
2023-11-22T07:52:08.218Z,8.10
2023-11-22T07:57:04.520Z,10.75
2023-11-22T07:59:32.222Z,8.88
2023-11-22T08:02:02.702Z,9.05
2023-11-22T08:04:33.344Z,6.95
2023-11-22T08:07:02.532Z,8.75
2023-11-22T08:09:33.844Z,8.77
2023-11-22T08:12:06.143Z,10.35
2023-11-22T08:14:34.780Z,8.25
2023-11-22T08:17:03.077Z,6.53
2023-11-22T08:19:30.717Z,7.70
2023-11-22T08:21:58.321Z,7.63
2023-11-22T08:24:25.875Z,10.13
2023-11-22T08:26:54.683Z,9.15
2023-11-22T08:29:23.301Z,10.05
2023-11-22T08:31:52.079Z,8.93
2023-11-22T08:34:19.635Z,9.15
2023-11-22T08:36:49.001Z,7.90
2023-11-22T08:39:16.739Z,10.25
2023-11-22T08:41:44.261Z,8.32
2023-11-22T08:44:13.195Z,9.82
2023-11-22T08:46:40.809Z,10.70
2023-11-22T08:49:08.657Z,12.18
2023-11-22T08:51:36.163Z,13.65
2023-11-22T08:54:03.945Z,11.45
2023-11-22T08:56:31.647Z,15.43
2023-11-22T08:58:59.176Z,13.02
2023-11-22T09:01:28.160Z,13.57
2023-11-22T09:03:55.797Z,12.17
2023-11-22T09:06:23.431Z,12.00
2023-11-22T09:08:51.122Z,26.48
2023-11-22T09:11:21.223Z,13.65
2023-11-22T09:13:49.044Z,15.55
2023-11-22T09:16:17.802Z,15.00
2023-11-22T09:18:46.779Z,13.27
2023-11-22T09:21:16.764Z,11.97
2023-11-22T09:23:45.912Z,13.38
2023-11-22T09:26:13.449Z,12.48
2023-11-22T09:28:41.741Z,16.25
2023-11-22T09:31:09.558Z,12.55
2023-11-22T09:33:38.221Z,14.43
2023-11-22T09:36:11.068Z,11.95
2023-11-22T09:38:40.023Z,13.40
2023-11-22T09:41:09.085Z,12.93
2023-11-22T09:43:36.694Z,14.13
2023-11-22T09:46:05.898Z,15.80
2023-11-22T09:48:33.895Z,14.80
2023-11-22T09:51:04.589Z,13.25
2023-11-22T09:53:35.630Z,14.85
2023-11-22T09:56:03.767Z,14.13
2023-11-22T09:58:32.053Z,15.02
2023-11-22T10:00:59.960Z,25.38
2023-11-22T10:03:28.424Z,12.45
2023-11-22T10:05:58.368Z,14.23
2023-11-22T10:10:55.484Z,14.10
2023-11-22T10:13:24.215Z,11.48
2023-11-22T10:15:52.130Z,13.30
2023-11-22T10:18:19.824Z,12.25
2023-11-22T10:20:50.397Z,18.40
2023-11-22T10:23:18.811Z,11.13
2023-11-22T10:25:46.631Z,12.13
2023-11-22T10:28:15.698Z,9.32
2023-11-22T10:30:43.467Z,12.10
2023-11-22T10:33:14.894Z,12.18
2023-11-22T10:35:44.683Z,12.60
2023-11-22T10:38:12.225Z,10.70
2023-11-22T10:40:40.196Z,11.85
2023-11-22T10:43:10.019Z,12.15
2023-11-22T10:48:10.261Z,9.93
2023-11-22T10:50:38.972Z,10.82
2023-11-22T10:53:08.966Z,13.93
2023-11-22T10:55:37.319Z,12.38
2023-11-22T10:58:05.910Z,12.13
2023-11-22T11:00:34.010Z,10.90
2023-11-22T11:03:03.441Z,10.27
2023-11-22T11:05:33.749Z,13.05
2023-11-22T11:08:02.923Z,12.23
2023-11-22T11:10:31.691Z,10.82
2023-11-22T11:12:59.433Z,12.02
2023-11-22T11:15:28.718Z,9.73
2023-11-22T11:17:56.634Z,10.10
2023-11-22T11:20:25.279Z,11.50
2023-11-22T11:22:56.232Z,10.40
2023-11-22T11:25:24.661Z,11.52
2023-11-22T11:27:59.254Z,9.90
2023-11-22T11:30:45.678Z,9.98
2023-11-22T11:33:18.342Z,11.88
2023-11-22T11:35:48.133Z,14.40
2023-11-22T11:38:18.318Z,11.35
2023-11-22T11:40:48.616Z,12.90
2023-11-22T11:43:16.194Z,10.20
2023-11-22T11:45:47.164Z,13.70
2023-11-22T11:48:18.883Z,13.55
2023-11-22T11:50:48.477Z,11.52
2023-11-22T11:53:20.276Z,12.47
2023-11-22T11:55:51.247Z,11.05
2023-11-22T11:58:19.560Z,12.57
2023-11-22T12:00:47.686Z,12.77
2023-11-22T12:03:22.183Z,11.05
2023-11-22T12:05:50.317Z,11.77
2023-11-22T12:08:19.954Z,11.63
2023-11-22T12:10:49.998Z,13.02
2023-11-22T12:13:18.769Z,10.63
2023-11-22T12:15:46.510Z,11.10
2023-11-22T12:18:14.142Z,13.02
2023-11-22T12:20:41.844Z,10.85
2023-11-22T12:23:09.590Z,11.70
2023-11-22T12:25:38.614Z,13.35
2023-11-22T12:28:06.311Z,11.70
2023-11-22T12:30:35.378Z,12.98
2023-11-22T12:33:04.804Z,12.07
2023-11-22T12:35:33.151Z,11.95
2023-11-22T12:38:00.986Z,15.35
2023-11-22T12:40:30.822Z,9.32
2023-11-22T12:45:29.372Z,11.80
2023-11-22T12:47:57.302Z,12.88
2023-11-22T12:50:31.820Z,13.20
2023-11-22T12:53:00.032Z,14.43
2023-11-22T12:55:27.690Z,10.00
2023-11-22T12:57:58.747Z,14.95
2023-11-22T13:00:30.256Z,16.60
2023-11-22T13:03:03.402Z,12.75
2023-11-22T13:05:32.398Z,11.73
2023-11-22T13:08:02.330Z,10.95
2023-11-22T13:10:30.667Z,11.82
2023-11-22T13:12:58.481Z,12.68
2023-11-22T13:15:27.912Z,13.82
2023-11-22T13:17:56.620Z,12.52
2023-11-22T13:20:26.704Z,11.23
2023-11-22T13:22:54.320Z,13.95
2023-11-22T13:25:21.864Z,8.93
2023-11-22T13:27:50.052Z,11.43
2023-11-22T13:30:20.396Z,11.35
2023-11-22T13:32:50.371Z,13.93
2023-11-22T13:35:18.925Z,14.07
2023-11-22T13:37:47.331Z,18.85
2023-11-22T13:40:17.491Z,14.45
2023-11-22T13:42:45.405Z,10.73
2023-11-22T13:45:16.405Z,11.88
2023-11-22T13:47:45.680Z,10.82
2023-11-22T13:50:16.563Z,11.40
2023-11-22T13:52:44.176Z,12.23
2023-11-22T13:55:13.813Z,11.98
2023-11-22T13:57:41.326Z,10.35
2023-11-22T14:00:13.374Z,12.88
2023-11-22T14:02:41.561Z,10.80
2023-11-22T14:05:09.632Z,13.18
2023-11-22T14:07:38.728Z,13.07
2023-11-22T14:10:07.343Z,14.05
2023-11-22T14:12:34.913Z,10.23
2023-11-22T14:15:02.625Z,11.07
2023-11-22T14:17:30.743Z,12.07
2023-11-22T14:19:58.270Z,11.07
2023-11-22T14:22:25.789Z,15.93
2023-11-22T14:24:54.690Z,11.85
2023-11-22T14:27:22.897Z,13.97
2023-11-22T14:29:51.596Z,14.27
2023-11-22T14:32:20.863Z,13.38
2023-11-22T14:34:48.772Z,11.95
2023-11-22T14:37:16.517Z,11.18
2023-11-22T14:39:45.454Z,10.82
2023-11-22T14:42:15.224Z,13.13
2023-11-22T14:47:20.478Z,20.17
2023-11-22T14:49:48.037Z,12.75
2023-11-22T14:52:17.318Z,13.15
2023-11-22T14:54:45.786Z,12.07
2023-11-22T14:57:14.675Z,11.35
2023-11-22T14:59:42.838Z,13.43
2023-11-22T15:02:10.576Z,15.32
2023-11-22T15:04:38.481Z,12.23
2023-11-22T15:07:06.318Z,12.50
2023-11-22T15:09:34.404Z,12.30
2023-11-22T15:12:04.774Z,12.25
2023-11-22T15:14:34.033Z,11.93
2023-11-22T15:17:01.893Z,6.40
2023-11-22T15:19:29.458Z,9.52
2023-11-22T15:21:56.919Z,10.05
2023-11-22T15:24:24.409Z,9.25
2023-11-22T15:26:52.355Z,13.02
2023-11-22T15:29:19.878Z,14.07
2023-11-22T15:31:48.890Z,14.45
2023-11-22T15:34:16.549Z,20.10
2023-11-22T15:36:44.314Z,10.73
2023-11-22T15:39:16.169Z,10.32
2023-11-22T15:41:44.689Z,11.23
2023-11-22T15:44:13.815Z,9.93
2023-11-22T15:46:42.495Z,9.18
2023-11-22T15:49:11.530Z,13.43
2023-11-22T15:51:39.005Z,10.60
2023-11-22T15:54:07.147Z,15.55
2023-11-22T15:56:34.745Z,13.85
2023-11-22T15:59:02.295Z,11.32
2023-11-22T16:01:30.075Z,11.55
2023-11-22T16:03:57.791Z,10.85
2023-11-22T16:06:29.105Z,12.77
2023-11-22T16:08:57.508Z,15.65
2023-11-22T16:11:25.201Z,14.05
2023-11-22T16:13:52.915Z,12.77
2023-11-22T16:16:23.148Z,18.77
2023-11-22T16:18:50.934Z,18.73
2023-11-22T16:21:18.990Z,18.13
2023-11-22T16:23:48.139Z,13.68
2023-11-22T16:26:15.985Z,11.52
2023-11-22T16:28:43.533Z,11.38
2023-11-22T16:31:12.553Z,13.38
2023-11-22T16:33:40.337Z,10.70
2023-11-22T16:36:08.340Z,9.98
2023-11-22T16:38:36.070Z,10.00
2023-11-22T16:41:07.110Z,9.32
2023-11-22T16:43:35.870Z,9.15
2023-11-22T16:46:03.545Z,14.25
2023-11-22T16:48:31.077Z,8.90
2023-11-22T16:50:58.712Z,12.23
2023-11-22T16:53:26.323Z,11.93
2023-11-22T16:55:54.677Z,9.85
2023-11-22T16:58:23.831Z,9.82
2023-11-22T17:00:52.298Z,8.27
2023-11-22T17:03:23.384Z,8.77
2023-11-22T17:05:52.382Z,10.43
2023-11-22T17:08:20.376Z,7.70
2023-11-22T17:10:48.262Z,8.93
2023-11-22T17:13:16.654Z,10.25
2023-11-22T17:15:46.310Z,14.75
2023-11-22T17:18:14.312Z,9.80
2023-11-22T17:20:43.071Z,22.17
2023-11-22T17:23:10.861Z,27.65
2023-11-22T17:25:38.397Z,53.22
2023-11-22T17:28:05.950Z,23.10
2023-11-22T17:30:34.766Z,48.75
2023-11-22T17:33:03.911Z,24.53
2023-11-22T17:35:31.628Z,21.00
2023-11-22T17:38:01.687Z,10.25
2023-11-22T17:40:30.033Z,10.60
2023-11-22T17:43:00.277Z,9.50
2023-11-22T17:45:28.609Z,14.07
2023-11-22T17:47:56.533Z,10.52
2023-11-22T17:50:25.596Z,13.07
2023-11-22T17:52:53.558Z,9.50
2023-11-22T17:55:21.024Z,8.77
2023-11-22T17:57:48.542Z,9.52
2023-11-22T18:00:17.456Z,15.20
2023-11-22T18:02:45.263Z,9.80
2023-11-22T18:05:12.873Z,12.35
2023-11-22T18:07:41.825Z,8.35
2023-11-22T18:10:09.587Z,7.13
2023-11-22T18:12:37.080Z,12.30
2023-11-22T18:15:04.793Z,9.93
2023-11-22T18:17:32.457Z,6.07
2023-11-22T18:19:59.951Z,8.75
2023-11-22T18:22:27.407Z,8.20
2023-11-22T18:24:56.297Z,12.10
2023-11-22T18:27:23.779Z,8.53
2023-11-22T18:29:51.287Z,7.55
2023-11-22T18:32:18.839Z,10.15
2023-11-22T18:34:46.352Z,8.65
2023-11-22T18:37:13.825Z,7.55
2023-11-22T18:39:41.298Z,11.00
2023-11-22T18:42:10.263Z,5.35
2023-11-22T18:44:39.845Z,9.07
2023-11-22T18:47:09.040Z,8.38
2023-11-22T18:49:37.168Z,7.35
2023-11-22T18:52:05.114Z,8.48
2023-11-22T18:54:32.654Z,12.55
2023-11-22T18:57:01.497Z,7.97
2023-11-22T18:59:30.833Z,8.40
2023-11-22T19:02:00.227Z,7.88
2023-11-22T19:04:30.509Z,8.35
2023-11-22T19:06:58.048Z,7.80
2023-11-22T19:09:25.595Z,9.70
2023-11-22T19:11:55.245Z,9.18
2023-11-22T19:14:26.562Z,8.40
2023-11-22T19:16:58.207Z,10.00
2023-11-22T19:19:26.164Z,12.20
2023-11-22T19:21:53.653Z,10.43
2023-11-22T19:24:23.460Z,10.65
2023-11-22T19:29:21.399Z,10.20
2023-11-22T19:31:49.024Z,10.57
2023-11-22T19:34:17.913Z,5.43
2023-11-22T19:36:45.388Z,7.88
2023-11-22T19:39:14.792Z,8.32
2023-11-22T19:41:42.550Z,7.95
2023-11-22T19:44:12.690Z,7.82
2023-11-22T19:46:43.268Z,9.25
2023-11-22T19:49:13.529Z,7.03
2023-11-22T19:51:42.992Z,9.05
2023-11-22T19:54:10.480Z,6.50
2023-11-22T19:56:38.016Z,7.28
2023-11-22T19:59:05.525Z,6.68
2023-11-22T20:01:35.911Z,6.38
2023-11-22T20:04:04.063Z,7.18
2023-11-22T20:06:31.670Z,5.93
2023-11-22T20:09:00.547Z,8.35
2023-11-22T20:11:28.037Z,6.83
2023-11-22T20:13:55.564Z,4.43
2023-11-22T20:16:23.076Z,6.78
2023-11-22T20:18:51.337Z,7.38
2023-11-22T20:21:18.870Z,8.50
2023-11-22T20:23:46.390Z,5.60
2023-11-22T20:26:16.067Z,9.35
2023-11-22T20:28:44.636Z,7.13
2023-11-22T20:31:12.116Z,6.90
2023-11-22T20:33:39.746Z,6.22
2023-11-22T20:36:07.429Z,7.53
2023-11-22T20:38:35.037Z,6.88
2023-11-22T20:41:02.530Z,6.70
2023-11-22T20:43:33.722Z,6.65
2023-11-22T20:46:02.947Z,9.98
2023-11-22T20:48:31.707Z,6.95
2023-11-22T20:50:59.237Z,7.22
2023-11-22T20:53:28.037Z,7.97
2023-11-22T20:55:55.898Z,5.45
2023-11-22T20:58:23.385Z,3.53
2023-11-22T21:00:52.180Z,4.82
2023-11-22T21:03:19.857Z,3.28
2023-11-22T21:05:49.003Z,5.25
2023-11-22T21:08:21.559Z,5.00
2023-11-22T21:10:51.755Z,5.68
2023-11-22T21:13:19.442Z,3.88
2023-11-22T21:15:47.032Z,4.78
2023-11-22T21:18:16.386Z,4.10
2023-11-22T21:20:43.954Z,4.63
2023-11-22T21:23:12.785Z,2.10
2023-11-22T21:25:40.300Z,5.30
2023-11-22T21:28:08.317Z,4.20
2023-11-22T21:30:35.808Z,4.68
2023-11-22T21:33:03.393Z,3.95
2023-11-22T21:35:32.450Z,4.45
2023-11-22T21:37:59.934Z,3.67
2023-11-22T21:40:28.552Z,4.50
2023-11-22T21:42:56.031Z,5.72
2023-11-22T21:45:23.522Z,7.25
2023-11-22T21:47:51.048Z,3.67
2023-11-22T21:50:19.675Z,4.65
2023-11-22T21:52:48.564Z,3.42
2023-11-22T21:55:16.112Z,3.85
2023-11-22T21:57:44.977Z,5.32
2023-11-22T22:00:15.714Z,2.57
2023-11-22T22:02:43.675Z,4.13
2023-11-22T22:05:11.341Z,2.60
2023-11-22T22:07:39.110Z,3.92
2023-11-22T22:10:09.083Z,6.18
2023-11-22T22:12:36.568Z,6.18
2023-11-22T22:15:04.159Z,4.40
2023-11-22T22:17:31.739Z,3.72
2023-11-22T22:19:59.505Z,5.40
2023-11-22T22:22:28.444Z,6.65
2023-11-22T22:24:55.943Z,3.53
2023-11-22T22:27:24.896Z,3.45
2023-11-22T22:29:52.445Z,4.53
2023-11-22T22:32:20.045Z,2.92
2023-11-22T22:34:47.778Z,2.60
2023-11-22T22:37:15.264Z,5.50
2023-11-22T22:39:42.736Z,4.18
2023-11-22T22:42:10.240Z,5.63
2023-11-22T22:44:39.109Z,4.07
2023-11-22T22:47:06.639Z,4.60
2023-11-22T22:49:34.529Z,3.00
2023-11-22T22:52:08.345Z,4.20
2023-11-22T22:54:39.421Z,4.22
2023-11-22T22:57:06.902Z,2.63
2023-11-22T22:59:34.621Z,4.13
2023-11-22T23:02:03.906Z,3.10
2023-11-22T23:04:31.472Z,2.03
2023-11-22T23:06:59.135Z,5.68
2023-11-22T23:09:27.015Z,4.78
2023-11-22T23:11:55.024Z,3.25
2023-11-22T23:14:22.485Z,4.70
2023-11-22T23:16:49.988Z,2.88
2023-11-22T23:19:19.493Z,4.68
2023-11-22T23:21:48.971Z,4.18
2023-11-22T23:24:16.398Z,3.03
2023-11-22T23:26:43.972Z,4.28
2023-11-22T23:29:12.844Z,4.43
2023-11-22T23:31:42.459Z,3.05
2023-11-22T23:34:09.998Z,3.63
2023-11-22T23:36:41.565Z,3.17
2023-11-22T23:39:11.735Z,3.95
2023-11-22T23:41:39.276Z,3.75
2023-11-22T23:44:07.120Z,4.90
2023-11-22T23:46:38.737Z,4.53
2023-11-22T23:49:08.150Z,4.57
2023-11-22T23:51:35.871Z,4.03
2023-11-22T23:54:04.807Z,2.53
2023-11-22T23:56:33.270Z,3.97
2023-11-22T23:59:01.808Z,4.63
